Shoukeimaruno.3 — JI3587 — position and weather

sailwx.info

Track history (hours):
 
Tides and Currents Weather Stations Pressure Air Temp Water Temp Dewpoint Dewpoint Depression Visibility Wind Speed Wind Dir Waves Ship Positions

Shoukeimaruno.3

Last reported at 2016-Apr-29 04:34 UTC. Time now 2016-Apr-29 06:07 UTC.
Position N 35°24' E 139°38'.

Length 77 m; draft 3.3 m.

Type: Cargo ship. MMSI: 431300325.

Date/timePositionNaut miles runAvg speedWind from/ knotsBaromVisibWave heightAir tempDewpointWater temp
2016-Apr-29 04:34N 35°24' E 139°38'6 6.2
2016-Apr-29 03:33N 35°20' E 139°43'1110.6
2016-Apr-29 02:33N 35°09' E 139°46'1211.5
2016-Apr-29 01:30N 34°57' E 139°44'1110.4
2016-Apr-29 00:25N 34°54' E 139°57'1112.4
2016-Apr-28 23:32N 35°01' E 140°08'2311.9
2016-Apr-28 21:33N 35°15' E 140°30'1211.8
2016-Apr-28 20:33N 35°25' E 140°39'1212.0
2016-Apr-28 19:33N 35°34' E 140°49'1211.9
2016-Apr-28 18:32N 35°45' E 140°55'1212.6
2016-Apr-28 17:33N 35°57' E 140°53'  
2016-Apr-23 02:23N 35°43' E 140°55'1211.9
2016-Apr-23 01:21N 35°33' E 140°49'1012.4
2016-Apr-23 00:32N 35°25' E 140°41'1312.9
2016-Apr-22 23:32N 35°15' E 140°30'1613.3
2016-Apr-22 22:20N 35°04' E 140°17'1012.1
2016-Apr-22 21:32N 34°57' E 140°08'1211.7
2016-Apr-22 20:29N 34°49' E 139°57'7111.3
2016-Apr-22 14:15N 34°31' E 138°34'190 3.9
2016-Apr-20 13:28N 34°04' E 134°47'  
Track history (hours):
 
Tides and Currents Weather Stations Pressure Air Temp Water Temp Dewpoint Dewpoint Depression Visibility Wind Speed Wind Dir Waves Ship Positions

Shoukeimaruno.3

Last reported at 2016-Apr-29 04:34 UTC. Time now 2016-Apr-29 06:07 UTC.
Position N 35°24' E 139°38'.

Length 77 m; draft 3.3 m.

Type: Cargo ship. MMSI: 431300325.

Date/timePositionNaut miles runAvg speedWind from/ knotsBaromVisibWave heightAir tempDewpointWater temp
2016-Apr-29 04:34N 35°24' E 139°38'6 6.2
2016-Apr-29 03:33N 35°20' E 139°43'1110.6
2016-Apr-29 02:33N 35°09' E 139°46'1211.5
2016-Apr-29 01:30N 34°57' E 139°44'1110.4
2016-Apr-29 00:25N 34°54' E 139°57'1112.4
2016-Apr-28 23:32N 35°01' E 140°08'2311.9
2016-Apr-28 21:33N 35°15' E 140°30'1211.8
2016-Apr-28 20:33N 35°25' E 140°39'1212.0
2016-Apr-28 19:33N 35°34' E 140°49'1211.9
2016-Apr-28 18:32N 35°45' E 140°55'1212.6
2016-Apr-28 17:33N 35°57' E 140°53'  
2016-Apr-23 02:23N 35°43' E 140°55'1211.9
2016-Apr-23 01:21N 35°33' E 140°49'1012.4
2016-Apr-23 00:32N 35°25' E 140°41'1312.9
2016-Apr-22 23:32N 35°15' E 140°30'1613.3
2016-Apr-22 22:20N 35°04' E 140°17'1012.1
2016-Apr-22 21:32N 34°57' E 140°08'1211.7
2016-Apr-22 20:29N 34°49' E 139°57'7111.3
2016-Apr-22 14:15N 34°31' E 138°34'190 3.9
2016-Apr-20 13:28N 34°04' E 134°47'  

Dump ship's entire track history